ADDS METAR Data INFO
IDs: Format: Raw Decoded Include TAF

Data at: 0317 UTC 16 Dec 2017

KTWM 160315Z AUTO 35003KT 10SM OVC041 M09/M14 A2974 RMK AO2
KTWM 160255Z AUTO 36003KT 10SM OVC043 M09/M14 A2974 RMK AO2
KTWM 160235Z AUTO 00000KT 10SM OVC043 M10/M14 A2974 RMK AO2
KTWM 160215Z AUTO 00000KT 10SM BKN043 OVC050 M10/M14 A2974 RMK AO2
KTWM 160155Z AUTO 00000KT 10SM OVC050 M10/M14 A2975 RMK AO2
KTWM 160135Z AUTO 00000KT 10SM OVC055 M10/M14 A2975 RMK AO2
KTWM 160115Z AUTO 00000KT 10SM OVC055 M10/M14 A2975 RMK AO2
KTWM 160055Z AUTO 00000KT 10SM BKN055 OVC080 M10/M14 A2975 RMK AO2
KTWM 160035Z AUTO 00000KT 10SM OVC080 M11/M14 A2975 RMK AO2
KTWM 160015Z AUTO 00000KT 10SM OVC080 M11/M14 A2975 RMK AO2
KTWM 152355Z AUTO 00000KT 10SM SCT050 OVC080 M11/M15 A2975 RMK AO2
KTWM 152335Z AUTO 00000KT 10SM OVC080 M12/M16 A2975 RMK AO2
KTWM 152315Z AUTO 00000KT 10SM OVC080 M12/M16 A2975 RMK AO2
KTWM 152255Z AUTO 00000KT 10SM OVC090 M12/M17 A2975 RMK AO2
KTWM 152235Z AUTO 00000KT 10SM BKN090 M11/M16 A2974 RMK AO2
KTWM 152215Z AUTO 00000KT 10SM CLR M11/M17 A2974 RMK AO2
KTWM 152155Z AUTO 00000KT 10SM CLR M09/M16 A2974 RMK AO2
KTWM 152135Z AUTO 00000KT 10SM CLR M06/M14 A2974 RMK AO2
KTWM 152115Z AUTO 00000KT 10SM BKN090 M06/M13 A2974 RMK AO2
KTWM 152055Z AUTO 25003KT 10SM OVC090 M07/M14 A2975 RMK AO2
KTWM 152035Z AUTO 27003KT 10SM OVC090 M06/M14 A2975 RMK AO2
KTWM 152015Z AUTO 24004KT 10SM OVC090 M07/M14 A2975 RMK AO2
KTWM 151955Z AUTO 27003KT 10SM OVC090 M07/M14 A2974 RMK AO2
KTWM 151935Z AUTO 00000KT 10SM BKN090 M08/M14 A2975 RMK AO2
KTWM 151915Z AUTO 26006KT 10SM SCT090 M07/M15 A2976 RMK AO2
KTWM 151855Z AUTO 31004KT 10SM CLR M06/M14 A2977 RMK AO2
KTWM 151835Z AUTO 25007KT 10SM CLR M06/M14 A2978 RMK AO2
KTWM 151815Z AUTO 30004KT 10SM CLR M07/M14 A2978 RMK AO2
KTWM 151755Z AUTO 27005KT 10SM CLR M07/M14 A2979 RMK AO2
KTWM 151735Z AUTO 30007KT 271V351 10SM CLR M07/M14 A2980 RMK AO2
KTWM 151715Z AUTO 27009KT 7SM SCT020 M07/M14 A2981 RMK AO2
KTWM 151655Z AUTO 28008KT 251V351 7SM -SN SCT022 M07/M14 A2981 RMK AO2
KTWM 151635Z AUTO 32004KT 10SM CLR M08/M15 A2982 RMK AO2
KTWM 151615Z AUTO 33004KT 10SM SCT022 M08/M14 A2982 RMK AO2
KTWM 151555Z AUTO 33004KT 10SM BKN022 M09/M15 A2982 RMK AO2
KTWM 151535Z AUTO 32005KT 10SM OVC024 M09/M15 A2982 RMK AO2
KTWM 151515Z AUTO 27007KT 231V311 10SM OVC024 M10/M15 A2982 RMK AO2
KTWM 151455Z AUTO 30005KT 10SM OVC024 M10/M15 A2982 RMK AO2
KTWM 151435Z AUTO 29003KT 10SM OVC026 M10/M15 A2982 RMK AO2
KTWM 151415Z AUTO 29004KT 10SM OVC026 M11/M15 A2982 RMK AO2
KTWM 151355Z AUTO 31003KT 7SM OVC024 M10/M14 A2982 RMK AO2
KTWM 151335Z AUTO 29003KT 7SM -SN OVC024 M10/M14 A2981 RMK AO2
KTWM 151315Z AUTO 28004KT 3SM -SN OVC024 M10/M14 A2981 RMK AO2
KTWM 151255Z AUTO 00000KT 5SM -SN OVC024 M09/M14 A2981 RMK AO2
KTWM 151235Z AUTO 31007KT 7SM OVC024 M09/M14 A2981 RMK AO2
KTWM 151215Z AUTO 31005KT 5SM -SN OVC024 M09/M13 A2982 RMK AO2
KTWM 151155Z AUTO 28005KT 7SM -SN OVC024 M09/M13 A2981 RMK AO2
KTWM 151135Z AUTO 29005KT 7SM OVC024 M09/M13 A2982 RMK AO2
KTWM 151115Z AUTO 31005KT 7SM BKN024 M09/M13 A2982 RMK AO2
KTWM 151055Z AUTO 30007G14KT 7SM -SN SCT013 SCT020 M10/M14 A2982 RMK AO2
KTWM 151035Z AUTO 30006KT 7SM -SN BKN016 M10/M13 A2982 RMK AO2
KTWM 151015Z AUTO 30009KT 271V341 7SM -SN SCT014 SCT022 M09/M13 A2981 RMK AO2
KTWM 150955Z AUTO 30007KT 10SM BKN024 M09/M13 A2981 RMK AO2
KTWM 150935Z AUTO 30008KT 271V331 10SM OVC028 M09/M13 A2982 RMK AO2
KTWM 150915Z AUTO 30007KT 231V321 10SM BKN028 M10/M13 A2982 RMK AO2
KTWM 150855Z AUTO 29005KT 10SM CLR M11/M14 A2982 RMK AO2
KTWM 150835Z AUTO 29006KT 10SM CLR M11/M14 A2982 RMK AO2
KTWM 150815Z AUTO 29005KT 10SM CLR M11/M14 A2982 RMK AO2
KTWM 150755Z AUTO 29005KT 10SM CLR M11/M14 A2982 RMK AO2
KTWM 150735Z AUTO 30005KT 10SM CLR M11/M14 A2982 RMK AO2
KTWM 150715Z AUTO 29007KT 10SM -SN SCT012 M11/M14 A2982 RMK AO2
KTWM 150655Z AUTO 30005KT 7SM -SN BKN012 M10/M14 A2982 RMK AO2
KTWM 150635Z AUTO 30004KT 5SM -SN SCT014 SCT085 M10/M13 A2983 RMK AO2
KTWM 150615Z AUTO 30006KT 7SM -SN OVC085 M10/M13 A2984 RMK AO2
KTWM 150555Z AUTO 30007KT 7SM -SN OVC085 M09/M13 A2984 RMK AO2
KTWM 150535Z AUTO 29004KT 10SM BKN085 120 M09/M13 A2984 RMK AO2
KTWM 150515Z AUTO 30007KT 10SM SCT085 120 M09/M13 A2984 RMK AO2
KTWM 150455Z AUTO 31005G14KT 10SM SCT060 BKN085 M09/M13 A2984 RMK AO2
KTWM 150435Z AUTO 10SM SCT060 OVC085 M08/M13 A2984 RMK AO2
KTWM 150415Z AUTO 30008G16KT 271V341 7SM OVC060 M08/M12 A2985 RMK AO2
KTWM 150355Z AUTO 29006KT 7SM -SN OVC060 M08/M12 A2985 RMK AO2
KTWM 150335Z AUTO 30005KT 7SM -SN OVC060 M08/M12 A2986 RMK AO2
KTWM 150315Z AUTO 29007G15KT 241V321 7SM -SN OVC060 M08/M12 A2986 RMK AO2
KTWM 150255Z AUTO 29006KT 5SM -SN BKN060 OVC065 M08/M12 A2987 RMK AO2
KTWM 150235Z AUTO 30005KT 10SM -SN BKN060 OVC065 M08/M12 A2988 RMK AO2
KTWM 150215Z AUTO 28004KT 7SM -SN OVC060 M08/M12 A2988 RMK AO2
KTWM 150155Z AUTO 28003KT 10SM -SN OVC060 M08/M12 A2988 RMK AO2
KTWM 150135Z AUTO 29004KT 10SM OVC060 M07/M11 A2988 RMK AO2
KTWM 150115Z AUTO 27003KT 10SM SCT030 OVC060 M08/M11 A2989 RMK AO2
KTWM 150055Z AUTO 28003KT 10SM OVC028 M07/M11 A2989 RMK AO2
KTWM 150035Z AUTO 27004KT 10SM BKN028 OVC042 M07/M11 A2990 RMK AO2
KTWM 150015Z AUTO 26004KT 10SM OVC044 M07/M11 A2990 RMK AO2
KTWM 142355Z AUTO 25005KT 10SM SCT029 OVC045 M07/M11 A2990 RMK AO2
KTWM 142335Z AUTO 25004KT 10SM BKN029 OVC038 M07/M11 A2991 RMK AO2
KTWM 142315Z AUTO 25003KT 7SM -SN BKN029 OVC039 M07/M11 A2992 RMK AO2
KTWM 142255Z AUTO 25003KT 10SM -SN SCT029 OVC041 M07/M11 A2991 RMK AO2
KTWM 142235Z AUTO 25003KT 10SM -SN OVC043 M07/M11 A2991 RMK AO2
KTWM 142215Z AUTO 25003KT 5SM -SN SCT028 OVC045 M07/M11 A2991 RMK AO2
KTWM 142155Z AUTO 29003KT 5SM -SN SCT022 SCT027 OVC043 M07/M11 A2992 RMK AO2
KTWM 142135Z AUTO 28005KT 7SM -SN BKN022 OVC043 M06/M11 A2991 RMK AO2
KTWM 142115Z AUTO 28004KT 7SM OVC020 M06/M11 A2991 RMK AO2
KTWM 142055Z AUTO 26004KT 7SM -SN BKN020 OVC055 M06/M11 A2990 RMK AO2
KTWM 142035Z AUTO 28006KT 10SM -SN OVC020 M05/M11 A2990 RMK AO2
KTWM 142015Z AUTO 26005KT 10SM OVC020 M05/M10 A2990 RMK AO2
KTWM 141955Z AUTO 30004KT 10SM OVC020 M05/M10 A2990 RMK AO2
KTWM 141935Z AUTO 26004KT 10SM -SN OVC020 M04/M09 A2991 RMK AO2
KTWM 141915Z AUTO 26004KT 7SM OVC020 M04/M09 A2991 RMK AO2
KTWM 141855Z AUTO 24007KT 7SM -SN OVC020 M04/M09 A2992 RMK AO2
KTWM 141835Z AUTO 28004KT 5SM HZ OVC020 M04/M09 A2992 RMK AO2
KTWM 141815Z AUTO 27004KT 4SM -SN OVC018 M05/M09 A2992 RMK AO2
KTWM 141755Z AUTO 25004KT 4SM -SN OVC016 M05/M09 A2993 RMK AO2
KTWM 141735Z AUTO 26003KT 5SM -SN OVC016 M06/M09 A2993 RMK AO2
KTWM 141715Z AUTO 28003KT 7SM -SN OVC016 M06/M09 A2994 RMK AO2
KTWM 141655Z AUTO 26004KT 7SM -SN OVC016 M06/M09 A2995 RMK AO2
KTWM 141635Z AUTO 28004KT 5SM HZ OVC016 M06/M09 A2995 RMK AO2
KTWM 141615Z AUTO 00000KT 4SM HZ OVC016 M06/M09 A2995 RMK AO2
KTWM 141555Z AUTO 26004KT 5SM -SN OVC014 M07/M09 A2996 RMK AO2
KTWM 141535Z AUTO 27003KT 5SM -SN OVC014 M07/M09 A2995 RMK AO2